createdAt,value
2022-09-10T00:03:44.811Z,16.81
2022-09-10T00:08:44.754Z,16.09
2022-09-10T00:13:44.684Z,16.44
2022-09-10T00:18:44.640Z,16.52
2022-09-10T00:23:44.553Z,17.48
2022-09-10T00:28:44.482Z,16.86
2022-09-10T00:33:44.412Z,16.40
2022-09-10T00:38:44.376Z,16.58
2022-09-10T00:43:44.297Z,16.93
2022-09-10T00:48:44.232Z,16.74
2022-09-10T00:53:44.154Z,16.55
2022-09-10T00:58:44.088Z,16.74
2022-09-10T01:03:44.024Z,16.49
2022-09-10T01:08:43.955Z,16.04
2022-09-10T01:13:43.888Z,16.01
2022-09-10T01:18:43.826Z,16.25
2022-09-10T01:23:43.775Z,16.16
2022-09-10T01:28:43.859Z,16.18
2022-09-10T01:33:43.618Z,16.75
2022-09-10T01:38:43.567Z,16.40
2022-09-10T01:43:43.669Z,16.65
2022-09-10T01:48:43.430Z,16.70
2022-09-10T01:53:43.361Z,16.55
2022-09-10T01:58:43.408Z,16.31
2022-09-10T02:03:43.399Z,16.41
2022-09-10T02:08:43.258Z,16.52
2022-09-10T02:13:43.112Z,16.14
2022-09-10T02:18:43.037Z,15.33
2022-09-10T02:23:42.972Z,15.30
2022-09-10T02:28:42.930Z,15.43
2022-09-10T02:33:42.830Z,15.39
2022-09-10T02:38:42.772Z,15.08
2022-09-10T02:43:42.691Z,14.95
2022-09-10T02:48:42.835Z,14.94
2022-09-10T02:53:42.561Z,15.01
2022-09-10T02:58:42.510Z,14.87
2022-09-10T03:03:42.449Z,14.74
2022-09-10T03:08:42.371Z,14.43
2022-09-10T03:13:42.302Z,14.35
2022-09-10T03:18:42.263Z,14.64
2022-09-10T03:23:42.172Z,14.37
2022-09-10T03:28:42.123Z,14.53
2022-09-10T03:33:42.059Z,14.98
2022-09-10T03:38:42.000Z,15.03
2022-09-10T03:43:41.918Z,14.84
2022-09-10T03:48:41.862Z,14.37
2022-09-10T03:53:41.943Z,14.54
2022-09-10T03:58:41.730Z,14.21
2022-09-10T04:03:41.663Z,14.90
2022-09-10T04:08:41.583Z,14.74
2022-09-10T04:13:41.514Z,15.49
2022-09-10T04:18:41.445Z,15.13
2022-09-10T04:23:41.377Z,14.86
2022-09-10T04:28:41.317Z,15.35
2022-09-10T04:33:41.242Z,15.27
2022-09-10T04:38:41.190Z,15.01
2022-09-10T04:43:41.107Z,15.33
2022-09-10T04:48:41.067Z,16.01
2022-09-10T04:53:40.995Z,15.88
2022-09-10T04:58:41.646Z,15.74
2022-09-10T05:03:40.934Z,15.93
2022-09-10T05:08:40.884Z,16.15
2022-09-10T05:13:40.705Z,15.21
2022-09-10T05:18:40.646Z,15.48
2022-09-10T05:23:40.578Z,14.95
2022-09-10T05:28:40.600Z,15.11
2022-09-10T05:33:40.436Z,15.12
2022-09-10T05:38:40.419Z,16.09
2022-09-10T05:43:40.342Z,16.38
2022-09-10T05:48:41.813Z,16.34
2022-09-10T05:53:40.203Z,16.77
2022-09-10T05:58:40.239Z,17.53
2022-09-10T06:03:40.230Z,18.43
2022-09-10T06:08:40.189Z,20.43
2022-09-10T06:13:39.933Z,21.78
2022-09-10T06:18:40.069Z,22.80
2022-09-10T06:23:39.912Z,23.38
2022-09-10T06:28:40.002Z,24.04
2022-09-10T06:33:39.677Z,22.12
2022-09-10T06:38:39.732Z,21.78
2022-09-10T06:43:39.583Z,22.60
2022-09-10T06:48:43.280Z,23.31
2022-09-10T06:53:40.504Z,22.35
2022-09-10T06:58:39.495Z,22.68
2022-09-10T07:03:39.442Z,21.85
2022-09-10T07:08:39.320Z,22.06
2022-09-10T07:13:39.173Z,22.29
2022-09-10T07:18:39.430Z,22.54
2022-09-10T07:23:39.089Z,22.20
2022-09-10T07:28:41.411Z,22.44
2022-09-10T07:33:39.719Z,22.37
2022-09-10T07:38:38.962Z,21.51
2022-09-10T07:43:38.811Z,22.14
2022-09-10T07:48:38.847Z,21.26
2022-09-10T07:53:38.690Z,20.96
2022-09-10T07:58:39.246Z,21.24
2022-09-10T08:03:38.555Z,21.32
2022-09-10T08:08:38.641Z,21.38
2022-09-10T08:13:38.430Z,21.50
2022-09-10T08:18:38.449Z,22.46
2022-09-10T08:23:38.327Z,22.39
2022-09-10T08:28:38.438Z,23.04
2022-09-10T08:33:38.190Z,22.82
2022-09-10T08:38:38.174Z,23.09
2022-09-10T08:43:38.032Z,22.93
2022-09-10T08:48:38.394Z,23.32
2022-09-10T08:53:37.924Z,23.04
2022-09-10T08:58:37.905Z,23.08
2022-09-10T09:03:37.756Z,22.94
2022-09-10T09:08:37.763Z,23.07
2022-09-10T09:13:37.637Z,23.11
2022-09-10T09:18:37.765Z,22.93
2022-09-10T09:23:44.689Z,23.04
2022-09-10T09:28:38.511Z,22.97
2022-09-10T09:33:37.392Z,22.67
2022-09-10T09:38:37.359Z,22.13
2022-09-10T09:43:37.240Z,22.06
2022-09-10T09:48:37.293Z,21.46
2022-09-10T09:53:37.145Z,21.97
2022-09-10T09:58:37.104Z,21.98
2022-09-10T10:03:36.985Z,21.69
2022-09-10T10:08:36.926Z,21.81
2022-09-10T10:13:36.856Z,22.16
2022-09-10T10:18:36.817Z,22.06
2022-09-10T10:23:36.740Z,22.52
2022-09-10T10:28:36.694Z,22.49
2022-09-10T10:33:36.600Z,22.20
2022-09-10T10:38:36.593Z,21.92
2022-09-10T10:43:36.510Z,21.53
2022-09-10T10:48:36.506Z,21.32
2022-09-10T10:53:36.404Z,22.67
2022-09-10T10:58:36.395Z,21.92
2022-09-10T11:03:36.204Z,21.45
2022-09-10T11:08:36.187Z,21.19
2022-09-10T11:13:36.077Z,21.09
2022-09-10T11:18:36.086Z,21.42
2022-09-10T11:23:35.938Z,21.76
2022-09-10T11:28:36.110Z,22.20
2022-09-10T11:33:35.846Z,22.04
2022-09-10T11:38:35.729Z,22.31
2022-09-10T11:43:35.679Z,21.90
2022-09-10T11:48:35.704Z,21.95
2022-09-10T11:53:35.678Z,22.29
2022-09-10T11:58:35.534Z,21.81
2022-09-10T12:03:35.473Z,21.67
2022-09-10T12:08:35.372Z,21.85
2022-09-10T12:13:35.285Z,21.78
2022-09-10T12:18:35.915Z,21.92
2022-09-10T12:23:35.166Z,22.38
2022-09-10T12:28:35.078Z,22.52
2022-09-10T12:33:35.147Z,22.22
2022-09-10T12:38:34.967Z,22.01
2022-09-10T12:43:34.906Z,22.01
2022-09-10T12:48:34.814Z,21.98
2022-09-10T12:53:34.760Z,21.92
2022-09-10T12:58:34.671Z,22.14
2022-09-10T13:03:34.633Z,22.64
2022-09-10T13:08:34.549Z,22.99
2022-09-10T13:13:34.490Z,22.96
2022-09-10T13:18:34.424Z,22.92
2022-09-10T13:23:34.363Z,22.43
2022-09-10T13:28:34.297Z,22.46
2022-09-10T13:33:34.225Z,22.41
2022-09-10T13:38:34.337Z,22.68
2022-09-10T13:43:34.088Z,23.01
2022-09-10T13:48:34.029Z,23.07
2022-09-10T13:53:34.000Z,22.32
2022-09-10T13:58:33.909Z,22.23
2022-09-10T14:03:33.855Z,22.22
2022-09-10T14:08:33.760Z,22.22
2022-09-10T14:13:33.702Z,22.47
2022-09-10T14:18:33.614Z,22.39
2022-09-10T14:23:33.557Z,22.89
2022-09-10T14:28:33.473Z,23.57
2022-09-10T14:33:33.424Z,22.86
2022-09-10T14:38:33.345Z,22.43
2022-09-10T14:43:33.457Z,22.07
2022-09-10T14:48:33.229Z,22.04
2022-09-10T14:53:33.180Z,22.34
2022-09-10T14:58:33.098Z,22.28
2022-09-10T15:03:33.044Z,22.37
2022-09-10T15:08:32.959Z,22.13
2022-09-10T15:13:32.899Z,22.65
2022-09-10T15:18:32.824Z,22.34
2022-09-10T15:23:32.858Z,22.19
2022-09-10T15:28:32.702Z,21.95
2022-09-10T15:33:32.650Z,21.64
2022-09-10T15:38:32.593Z,22.02
2022-09-10T15:43:32.564Z,21.94
2022-09-10T15:48:32.716Z,22.01
2022-09-10T15:53:32.404Z,21.60
2022-09-10T15:58:32.342Z,21.41
2022-09-10T16:03:32.256Z,21.30
2022-09-10T16:08:32.340Z,21.26
2022-09-10T16:13:32.215Z,21.46
2022-09-10T16:18:32.119Z,21.71
2022-09-10T16:23:32.009Z,21.50
2022-09-10T16:28:31.965Z,21.56
2022-09-10T16:33:31.880Z,20.81
2022-09-10T16:38:31.888Z,20.76
2022-09-10T16:43:31.763Z,20.51
2022-09-10T16:48:31.883Z,20.98
2022-09-10T16:53:31.646Z,21.29
2022-09-10T16:58:35.667Z,21.13
2022-09-10T17:03:31.503Z,20.66
2022-09-10T17:08:31.444Z,20.33
2022-09-10T17:13:31.382Z,19.95
2022-09-10T17:18:31.296Z,19.33
2022-09-10T17:23:31.227Z,19.32
2022-09-10T17:28:31.178Z,19.32
2022-09-10T17:33:31.098Z,18.87
2022-09-10T17:38:35.195Z,19.32
2022-09-10T17:43:30.980Z,18.77
2022-09-10T17:48:30.910Z,18.49
2022-09-10T17:53:30.866Z,18.34
2022-09-10T17:58:30.782Z,18.99
2022-09-10T18:03:30.707Z,19.87
2022-09-10T18:08:30.631Z,19.88
2022-09-10T18:13:30.619Z,19.15
2022-09-10T18:18:30.502Z,19.35
2022-09-10T18:23:30.443Z,19.75
2022-09-10T18:28:30.399Z,18.82
2022-09-10T18:33:34.263Z,18.90
2022-09-10T18:38:30.224Z,18.86
2022-09-10T18:43:30.175Z,18.19
2022-09-10T18:48:30.093Z,18.47
2022-09-10T18:53:30.032Z,19.42
2022-09-10T18:58:29.965Z,18.82
2022-09-10T19:03:30.075Z,18.33
2022-09-10T19:08:29.827Z,17.35
2022-09-10T19:13:29.765Z,16.56
2022-09-10T19:18:29.719Z,16.56
2022-09-10T19:23:29.666Z,17.00
2022-09-10T19:28:29.575Z,16.83
2022-09-10T19:33:29.613Z,17.47
2022-09-10T19:38:37.436Z,18.76
2022-09-10T19:43:30.397Z,18.76
2022-09-10T19:48:29.328Z,18.95
2022-09-10T19:53:29.247Z,18.92
2022-09-10T19:58:29.277Z,18.42
2022-09-10T20:03:29.138Z,17.82
2022-09-10T20:08:29.069Z,17.35
2022-09-10T20:13:29.077Z,17.48
2022-09-10T20:18:28.908Z,17.99
2022-09-10T20:23:28.884Z,17.79
2022-09-10T20:28:28.784Z,17.57
2022-09-10T20:33:28.730Z,16.78
2022-09-10T20:38:28.661Z,16.85
2022-09-10T20:43:28.602Z,16.96
2022-09-10T20:48:28.515Z,16.42
2022-09-10T20:53:28.460Z,16.41
2022-09-10T20:58:28.420Z,16.55
2022-09-10T21:03:28.366Z,17.26
2022-09-10T21:08:28.297Z,17.26
2022-09-10T21:13:28.401Z,17.40
2022-09-10T21:18:28.112Z,18.82
2022-09-10T21:23:28.064Z,18.36
2022-09-10T21:28:28.008Z,17.81
2022-09-10T21:33:27.923Z,16.73
2022-09-10T21:38:27.874Z,16.48
2022-09-10T21:43:27.803Z,16.34
2022-09-10T21:48:27.734Z,16.14
2022-09-10T21:53:27.680Z,15.85
2022-09-10T21:58:27.596Z,16.34
2022-09-10T22:03:27.542Z,16.30
2022-09-10T22:08:27.476Z,16.04
2022-09-10T22:13:27.399Z,15.97
2022-09-10T22:18:27.497Z,16.42
2022-09-10T22:23:27.286Z,16.35
2022-09-10T22:28:27.198Z,15.96
2022-09-10T22:33:27.138Z,16.35
2022-09-10T22:38:27.057Z,16.44
2022-09-10T22:43:27.009Z,17.73
2022-09-10T22:48:26.935Z,17.63
2022-09-10T22:53:26.870Z,17.20
2022-09-10T22:58:27.756Z,17.08
2022-09-10T23:03:26.804Z,16.93
2022-09-10T23:08:26.666Z,16.83
2022-09-10T23:13:26.598Z,16.38
2022-09-10T23:18:26.530Z,15.78
2022-09-10T23:23:26.660Z,15.74
2022-09-10T23:28:26.400Z,15.74
2022-09-10T23:33:26.341Z,15.94
2022-09-10T23:38:26.271Z,16.15
2022-09-10T23:43:26.212Z,15.64
2022-09-10T23:48:26.142Z,16.35
2022-09-10T23:53:26.083Z,16.38
2022-09-10T23:58:26.026Z,16.95
